AREA preflight bulletin
Updated "live" 23 May 2019, 13:57

back to the map




METAR og TAF


KANGERLUSSUAQ
  AKTUEL BGSF 231350Z AUTO 09006KT 040V130 9999NDV NCD 15/M03 Q1017=
  TAF 24 timer BGSF 231100Z 2312/2418 06008KT 9999 FEW060 BECMG 2312/2314 24010KT BECMG 2404/2406 06010KT=

SISIMIUT
  AKTUEL BGSS 231350Z 14008KT 1200 BCFG FEW001 BKN180 01/M00 Q1019 RMK VIS 9999NE TO E=
  TAF 9 timer BGSS 231326Z 2312/2321 12008KT 9999 FEW002 TEMPO 2312/2321 0800 BCFG BKN002=

MANIITSOQ
  AKTUEL BGMQ 231350Z 26004KT 220V280 0900 FG VV002 M00/// Q1019=
  TAF 9 timer BGMQ 231200Z 2312/2321 VRB05KT 0400 FZFG FG VV001 TEMPO 2312/2315 4000 BCFG BKN005 BECMG 2315/2317 29010KT 9999 NSW FEW002 PROB40 2317/2321 4000 BCFG BKN004=

NUUK
  AKTUEL BGGH 231350Z 36003KT 9999 FEW200 09/02 Q1018=
  TAF 9 timer BGGH 231127Z 2312/2321 34005KT 9999 FEW006=

ILULISSAT
  AKTUEL BGJN 231350Z 10012KT 9999 FEW180 12/M04 Q1017=
  TAF 9 timer BGJN 231127Z 2312/2321 VRB05KT 9999 FEW180=

AASIAAT
  AKTUEL BGAA 231350Z 03004KT 330V070 9999 SCT180 05/02 Q1017=
  TAF 9 timer BGAA 231200Z 2312/2319 04008KT 9999 FEW180=


SIGMETS:

SONDRESTROM FIR
  SIGMET BGGL SIGMET 4 VALID 231230/231630 BGSF- BGGL NUUK FIR SEV TURB FCST AT 1230Z WI N5954 W04504 - N6049 W04409 - N6049 W04231 - N5932 W04320 - N5954 W04504 SFC/FL110 STNR NC=

NOTAM/SNOWTAM for operationel use has to be confirmed with the
nearest AIS Briefing Office prior to a flight.

ICAO
BGSS (SISIMIUT)

FIR
BGGL

Notam_id:
BGB0365/19

valid from:
1905211049

E) SEA RESCUE NOT AVBL DUE TO MAINTENANCE.

valid to:
1905241700


Replacing:
BGB0352/19

ICAO
BGSS (SISIMIUT)

FIR
BGGL

Notam_id:
BGB0207/19

valid from:
1904011135

E) BGSS AFIS FREQ 118,100 MHZ NO COVERAGE IN SECTOR BETWEEN 280 MAG AND 110 MAG BELOW 7000FT.

valid to:
1908311700




ICAO
BGSS (SISIMIUT)

FIR
BGGL

Notam_id:
BGB0299/19

valid from:
1906200000

E) TRIGGER NOTAM - PERM AIP AIRAC AMDT 04/19 WEF 20 JUN 2019. CHANGE TO RESCUE AND FIRE FIGHTING SERVICE.

valid to:
1907032359




ICAO
BGSS (SISIMIUT)

FIR
BGGL

Notam_id:
BGB0355/19

valid from:
1905261400

E) RWY 13/31 CLSD. CAN BE REOPENED WITHIN ONE HOUR.

valid to:
1905261800




ICAO
BGSS (SISIMIUT)

FIR
BGGL

Notam_id:
BGB0195/19

valid from:
1903281744

E) CAT 5 PPR 3 HRS BEFORE LANDING OR DEPARTURE FOR ALL TRAFFIC ABOVE 10 TON AND MORE THAN 19 PASSENGER EXCEPT FOR SCHEDULED TRAFFIC.

valid to:
PERM




ICAO
BGMQ (MANIITSOQ)

FIR
BGGL

Notam_id:
BGB0363/19

valid from:
1905201037

E) PRESENT WEATHER SENSOR U/S.

valid to:
1906031815




ICAO
BGMQ (MANIITSOQ)

FIR
BGGL

Notam_id:
BGB0259/19

valid from:
1904120709

E) NOTAM B0949/18 CNL. INFORMATION INCORPORATED IN AIP AND VFG DENMARK AIRAC AMDT 02/19 WEF 28 MAR 2019.

valid to:
PERM


Replacing:
BGB0258/19

ICAO
BGGH (NUUK)

FIR
BGGL

Notam_id:
BGB0070/19

valid from:
1901311908

E) BGGH AFIS FREQ 119.100 MHZ NO COVERAGE IN SECTOR BETWEEN 060 DEG MAG AND 210 DEG MAG BELOW FL100.

valid to:
1907311900EST


Replacing:
BGB0786/18

ICAO
BGGH (NUUK)

FIR
BGGL

Notam_id:
BGB0930/17

valid from:
1712181907

E) ERROR IN CHART FOR RNAV (GNSS) APPROACH RWY 23. WITH REF AIP GREENLAND AD 2-BGGH RNAV (GNSS) RWY 23-1. NEW OCA(H) LNAV/VNAV CLIMB 2.5 PERCENT CAT A TO READ 1310 (1029) INSTEAD OF 1230. NEW OCA(H) LNAV/VNAV CLIMB 2.5 PERCENT CAT B TO READ 1340 (1059) INSTEAD OF 1250. NEW OCA(H) LNAV/VNAV CLIMB 5.0 PERCENT CAT A TO READ 1300 (1019) INSTEAD OF 1070. NEW OCA(H) LNAV/VNAV CLIMB 5.0 PERCENT CAT B TO READ 1320 (1039) INSTEAD OF 1110. NEW OCA(H) LNAV CLIMB 5.0 PERCENT CAT A TO READ 1150 (869) IN-STEAD OF 1130. NEW OCA(H) LNAV CLIMB 5.0 PERCENT CAT B TO READ 1240 (959) INSTEAD OF 1230.

valid to:
PERM




ICAO
BGGH (NUUK)

FIR
BGGL

Notam_id:
BGB0339/19

valid from:
1905071649

E) STAND 3 AND 4 CAN NOT RUN 2 HEATERS SIMULTANEOSLY WHILE RUNNING 2 GPU'S.

valid to:
1906071700EST


Replacing:
BGB0308/19

ICAO
BGGH (NUUK)

FIR
BGGL

Notam_id:
BGB0358/19

valid from:
1905151005

E) FIREFIGHTING AND RESCUE LIMITED TO: CAT5 PPR 3 HR BEFORE LANDING OR DEPARTURE FOR ALL TRAFFIC OVER 10 TONS AND ABOVE 19 PASSENGERS, EXCEPT SCHEDULED TRAFFIC.

valid to:
PERM


Replacing:
BGB0350/19

ICAO
BGJN (ILULISSAT)

FIR
BGGL

Notam_id:
BGB0298/19

valid from:
1906200000

E) TRIGGER NOTAM - PERM AIP AIRAC AMDT 04/19 WEF 20 JUN 2019. CHANGE TO RESCUE AND FIRE FIGHTING SERVICE.

valid to:
1907032359




ICAO
BGJN (ILULISSAT)

FIR
BGGL

Notam_id:
BGB0243/19

valid from:
1905010000

E) AIP GREENLAND AD 2-BGJN-1-6.1 CAT 5, PPR 3 HR BEFORE LNDG OR TKOF FOR ALL TRAFIC ABOVE 10 TONS AND MORE THAN 19 PASSENGERS EXCEPT SCHEDULED TRAFFIC.

valid to:
PERM




ICAO
BGJN (ILULISSAT)

FIR
BGGL

Notam_id:
BGB0214/19

valid from:
1904030934

E) EVERY SECOND APCH LIGHT RWY 07/25 OUT OF SERVICE.

valid to:
1908312359




ICAO
BGGL (SONDRESTROM FIR)

FIR
BGGL

Notam_id:
BGA0214/19

valid from:
1905010455

E) CHECKLIST YEAR=2017 0269 YEAR=2018 0199 YEAR=2019 0085 0125 0130 0144 0207 0213 LATEST PUBLICATIONS AIP AIRAC AMDT IFR 004/2019 EFFECTIVE DATE 20 JUN 19 AIP AMDT IFR 003/2018 EFFECTIVE DATE 15 MAR 18 AIP SUP IFR 006/2018 EFFECTIVE DATE 18 JUN 18 AIC IFR A001/2019 EFFECTIVE DATE 17 JAN 19

valid to:
1906010455EST


Replacing:
BGA0165/19

ICAO
BGGL (SONDRESTROM FIR)

FIR
BGGL

Notam_id:
BGB0309/19

valid from:
1905010456

E) CHECKLIST YEAR=2017 0740 0930 YEAR=2018 0806 0811 0928 0958 YEAR=2019 0005 0070 0112 0145 0148 0149 0150 0195 0207 0211 0214 0241 0243 0259 0283 0284 0285 0286 0289 0297 0298 0299 0303 0304 0305 0306 0307 0308 LATEST PUBLICATIONS AIP AIRAC AMDT IFR 004/2019 EFFECTIVE DATE 20 JUN 19 AIP AMDT IFR 003/2018 EFFECTIVE DATE 15 MAR 18 AIP SUP IFR 006/2018 EFFECTIVE DATE 18 JUN 18 AIC IFR A001/2019 EFFECTIVE DATE 17 JAN 19

valid to:
1906010456EST


Replacing:
BGB0206/19

ICAO
BGGL (SONDRESTROM FIR)

FIR
BGGL

Notam_id:
BGC0048/19

valid from:
1905010456

E) CHECKLIST YEAR=2018 0079 0081 YEAR=2019 0014 0015 0016 0017 0036 0037 0038 0039 0040 0041 0042 0045 0046 0047 LATEST PUBLICATIONS AIP AIRAC AMDT IFR 004/2019 EFFECTIVE DATE 20 JUN 19 AIP AMDT IFR 003/2018 EFFECTIVE DATE 15 MAR 18 AIP SUP IFR 006/2018 EFFECTIVE DATE 18 JUN 18 AIC IFR A001/2019 EFFECTIVE DATE 17 JAN 19

valid to:
1906010456EST


Replacing:
BGC0031/19

ICAO
BGGL (SONDRESTROM FIR)

FIR
BGGL

Notam_id:
BGA0199/18

valid from:
1805310935

E) GREENLAND AND ADJACENT WATERS ARE CONSIDERED HOSTILE AREAS BY THE CIVIL AVIATION AUTHORITY (TBST). THREE MAJOR REASONS CONTRIBUTE TO DEFINING THE AREA AS HOSTILE: A SAFE FORCED LANDING CANNOT BE ACCOMPLISHED BECAUSE THE SURFACE IS INADEQUATE. THE HELICOPTER OCCUPANTS CANNOT BE ADEQUATELY PROTECTED FROM THE ELEMENTS. SEARCH AND RESCUE RESPONSE/CAPABILITY ARE NOT PROVIDED CONSISTENT WITH ANTICIPATED EXPOSURE.

valid to:
PERM




ICAO
BGAA (AASIAAT)

FIR
BGGL

Notam_id:
BGA0269/17

valid from:
1706081136

D) DAILY 1100-1115 2300-2315


E) ASCENT OR WEATHER BALLOON TAKES PLACE TWICE A DAY 1100-1115 AND 2300-2315. POSN 684201N0525105W LOCATED WEST OF THE AIRPORT AT A DISTANCE OF APPROX 3 KM. THE BALLOON CAN RISE TO A HEIGHT OF UP TO 35 KM. REF AIP GREENLAND AD 2 - BGAA - 4. F) SFC G) FL999

valid to:
PERM





Copyright Naviair   2003-2016